Crew | Aerofun Virtual



 METAR AND TAF INFORMATION
METAR FOR EETU
ADDS - METARS form results

(1535 UTC 24 May 2019)
Data provider http://aviationweather.gov/metar/data/
 
METAR text: EETU 241450Z AUTO VRB02KT 9999 FEW010/// 14/14 Q1008 REDZ
Conditions at: EETU (TARTU , EE) observed 1450 UTC 24 May 2019
Temperature: 14.0°C (57°F)
Dewpoint: 14.0°C (57°F) [RH = 100%]
Pressure (altimeter): 29.76 inches Hg (1008.0 mb)
Winds: variable direction winds at 2 MPH (2 knots; 1.0 m/s)
Visibility: 6 or more miles (10+ km)
Ceiling: at least 12,000 feet AGL
Clouds: few clouds at 1000 feet AGL
Weather: no significant weather observed at this time

 AIRPORT MAP

 RUNWAY INFORMATION
Runway 08 Runway length 5902 ft Runway width 101 ft
Runway elevation 210 ft Runway displaced threshold 0 ft Runway heading 88
Runway 26 Runway length 5902 ft Runway width 101 ft
Runway elevation 192 ft Runway displaced threshold 0 ft Runway heading 268

 AIRPORT FREQUENCIES
Type TWR Name TWR Frequency 133.9 MHZ

 AIRPORT NEAR NAVIGATION AIDS
Type NDB Name Tartu Frequency 397 KHZ